PWSweather.com
Personal Weather Stations
Station Observations
KNYSYRAC2
Fairmount Hills, Fairmount, NY 13219

Fairmount HillsFairmount, NY 13219

Lat: 43.03602, Lon: -76.247151

Elevation: 663

Station Type: Ambient Weather WS-2080

http://weather.cerchia.com

High Low Average
Temperature 51.9°F11.1°F 43.6°F6.4°F 46.5°F8.1°F
Dew Point 46.6°F8.1°F 40.9°F4.9°F 43.6°F6.4°F
Winds 8.8 mph N14.2 mph N 1.2 mph 1.9 mph 4.1 mph 6.6 mph
Wind Gusts 13.0 mph20.9 mph 2.2 mph3.5 mph 6.1 mph9.8 mph
Humidity 100% 75% 90%
Pressure 30.17 in1021.70 in 30.04 in1017.30 in -
Precipitation 0.08 in2.00 in - -
Hour Temp Dew Point Humidity Winds Wind Gusts Pressure Precip Precip Rate Daily Precip Total
12:00 AM 46.8°F8.2°C 46.6°F8.1°C 99% 3.5 mph N5.6 kmh N 5.4 mph8.7 kmh 30.04 in1017.3 mb 0.00 in0.0 mm 0.00 in/hr0.0 mm/hr 0.00 in0.0 mm
12:15 AM 46.7°F8.2°C 46.4°F8.0°C 99% 2.4 mph N3.9 kmh N 3.8 mph6.1 kmh 30.05 in1017.6 mb 0.00 in0.0 mm 0.00 in/hr0.0 mm/hr 0.00 in0.0 mm
12:30 AM 46.5°F8.1°C 46.2°F7.9°C 99% 3.2 mph N5.1 kmh N 5.4 mph8.7 kmh 30.05 in1017.6 mb 0.00 in0.0 mm 0.00 in/hr0.0 mm/hr 0.00 in0.0 mm
12:45 AM 46.1°F7.8°C 45.9°F7.7°C 99% 4.3 mph NNE6.9 kmh NNE 5.4 mph8.7 kmh 30.05 in1017.6 mb 0.00 in0.0 mm 0.00 in/hr0.0 mm/hr 0.00 in0.0 mm
01:00 AM 45.9°F7.7°C 45.7°F7.6°C 99% 3.0 mph N4.8 kmh N 4.5 mph7.2 kmh 30.05 in1017.6 mb 0.00 in0.0 mm 0.00 in/hr0.0 mm/hr 0.00 in0.0 mm
01:15 AM 45.8°F7.7°C 45.5°F7.5°C 99% 2.7 mph N4.3 kmh N 6.0 mph9.7 kmh 30.05 in1017.6 mb 0.00 in0.0 mm 0.00 in/hr0.0 mm/hr 0.00 in0.0 mm
01:30 AM 45.6°F7.6°C 45.3°F7.4°C 99% 2.8 mph N4.5 kmh N 3.8 mph6.1 kmh 30.05 in1017.6 mb 0.00 in0.0 mm 0.00 in/hr0.0 mm/hr 0.00 in0.0 mm
01:45 AM 45.6°F7.6°C 45.3°F7.4°C 99% 3.0 mph N4.8 kmh N 4.5 mph7.2 kmh 30.05 in1017.6 mb 0.00 in0.0 mm 0.00 in/hr0.0 mm/hr 0.00 in0.0 mm
02:00 AM 45.4°F7.4°C 45.1°F7.3°C 99% 2.5 mph NNW4.0 kmh NNW 4.5 mph7.2 kmh 30.06 in1017.9 mb 0.00 in0.0 mm 0.00 in/hr0.0 mm/hr 0.00 in0.0 mm
02:15 AM 45.0°F7.2°C 44.2°F6.8°C 97% 2.9 mph NNE4.7 kmh NNE 3.8 mph6.1 kmh 30.06 in1017.9 mb 0.00 in0.0 mm 0.00 in/hr0.0 mm/hr 0.00 in0.0 mm
02:30 AM 45.0°F7.2°C 44.2°F6.8°C 97% 1.6 mph N2.6 kmh N 3.1 mph5.0 kmh 30.06 in1017.9 mb 0.00 in0.0 mm 0.00 in/hr0.0 mm/hr 0.00 in0.0 mm
02:45 AM 44.9°F7.2°C 44.1°F6.7°C 97% 1.8 mph NNW2.9 kmh NNW 2.2 mph3.5 kmh 30.06 in1017.9 mb 0.00 in0.0 mm 0.00 in/hr0.0 mm/hr 0.00 in0.0 mm
03:00 AM 44.9°F7.2°C 44.1°F6.7°C 97% 1.5 mph NW2.4 kmh NW 3.1 mph5.0 kmh 30.05 in1017.6 mb 0.00 in0.0 mm 0.00 in/hr0.0 mm/hr 0.00 in0.0 mm
03:15 AM 44.7°F7.1°C 43.9°F6.6°C 97% 1.5 mph N2.4 kmh N 2.2 mph3.5 kmh 30.06 in1017.9 mb 0.00 in0.0 mm 0.00 in/hr0.0 mm/hr 0.00 in0.0 mm
03:30 AM 44.5°F6.9°C 43.7°F6.5°C 97% 2.2 mph NW3.5 kmh NW 3.1 mph5.0 kmh 30.05 in1017.6 mb 0.00 in0.0 mm 0.00 in/hr0.0 mm/hr 0.00 in0.0 mm
03:45 AM 44.3°F6.8°C 43.5°F6.4°C 97% 2.9 mph N4.7 kmh N 4.5 mph7.2 kmh 30.06 in1017.9 mb 0.00 in0.0 mm 0.00 in/hr0.0 mm/hr 0.00 in0.0 mm
04:00 AM 44.3°F6.8°C 43.5°F6.4°C 97% 2.6 mph N4.2 kmh N 3.1 mph5.0 kmh 30.06 in1017.9 mb 0.00 in0.0 mm 0.00 in/hr0.0 mm/hr 0.00 in0.0 mm
04:15 AM 44.0°F6.7°C 43.2°F6.2°C 97% 2.3 mph NNE3.7 kmh NNE 3.8 mph6.1 kmh 30.07 in1018.3 mb 0.00 in0.0 mm 0.00 in/hr0.0 mm/hr 0.00 in0.0 mm
04:30 AM 44.0°F6.7°C 43.2°F6.2°C 97% 2.5 mph NW4.0 kmh NW 3.8 mph6.1 kmh 30.07 in1018.3 mb 0.00 in0.0 mm 0.00 in/hr0.0 mm/hr 0.00 in0.0 mm
04:45 AM 43.8°F6.6°C 43.0°F6.1°C 97% 2.6 mph N4.2 kmh N 4.5 mph7.2 kmh 30.08 in1018.6 mb 0.00 in0.0 mm 0.00 in/hr0.0 mm/hr 0.00 in0.0 mm
05:00 AM 43.6°F6.4°C 42.8°F6.0°C 97% 2.2 mph NW3.5 kmh NW 3.1 mph5.0 kmh 30.09 in1019.0 mb 0.00 in0.0 mm 0.00 in/hr0.0 mm/hr 0.00 in0.0 mm
05:15 AM 43.6°F6.4°C 42.8°F6.0°C 97% 1.2 mph NNW1.9 kmh NNW 2.2 mph3.5 kmh 30.10 in1019.3 mb 0.00 in0.0 mm 0.00 in/hr0.0 mm/hr 0.00 in0.0 mm
05:30 AM 43.6°F6.4°C 42.8°F6.0°C 97% 1.3 mph NNW2.1 kmh NNW 2.2 mph3.5 kmh 30.09 in1019.0 mb 0.00 in0.0 mm 0.00 in/hr0.0 mm/hr 0.00 in0.0 mm
05:45 AM 43.8°F6.6°C 43.0°F6.1°C 97% 1.8 mph NNW2.9 kmh NNW 3.1 mph5.0 kmh 30.10 in1019.3 mb 0.00 in0.0 mm 0.00 in/hr0.0 mm/hr 0.00 in0.0 mm
06:00 AM 43.8°F6.6°C 43.0°F6.1°C 97% 1.6 mph N2.6 kmh N 2.2 mph3.5 kmh 30.10 in1019.3 mb 0.00 in0.0 mm 0.00 in/hr0.0 mm/hr 0.00 in0.0 mm
06:15 AM 43.8°F6.6°C 43.0°F6.1°C 97% 2.8 mph N4.5 kmh N 5.4 mph8.7 kmh 30.11 in1019.6 mb 0.00 in0.0 mm 0.00 in/hr0.0 mm/hr 0.00 in0.0 mm
06:30 AM 43.8°F6.6°C 43.0°F6.1°C 97% 3.1 mph N5.0 kmh N 4.5 mph7.2 kmh 30.11 in1019.6 mb 0.00 in0.0 mm 0.00 in/hr0.0 mm/hr 0.00 in0.0 mm
06:45 AM 43.8°F6.6°C 43.0°F6.1°C 97% 2.1 mph NNW3.4 kmh NNW 3.1 mph5.0 kmh 30.11 in1019.6 mb 0.00 in0.0 mm 0.00 in/hr0.0 mm/hr 0.00 in0.0 mm
07:00 AM 43.8°F6.6°C 43.0°F6.1°C 97% 3.0 mph N4.8 kmh N 6.0 mph9.7 kmh 30.12 in1020.0 mb 0.00 in0.0 mm 0.00 in/hr0.0 mm/hr 0.00 in0.0 mm
07:15 AM 43.8°F6.6°C 43.0°F6.1°C 97% 3.8 mph N6.1 kmh N 4.5 mph7.2 kmh 30.12 in1020.0 mb 0.00 in0.0 mm 0.00 in/hr0.0 mm/hr 0.00 in0.0 mm
07:30 AM 43.8°F6.6°C 43.0°F6.1°C 97% 1.9 mph N3.1 kmh N 3.1 mph5.0 kmh 30.13 in1020.3 mb 0.00 in0.0 mm 0.00 in/hr0.0 mm/hr 0.00 in0.0 mm
07:45 AM 43.8°F6.6°C 43.0°F6.1°C 97% 4.0 mph N6.4 kmh N 5.4 mph8.7 kmh 30.14 in1020.7 mb 0.00 in0.0 mm 0.00 in/hr0.0 mm/hr 0.00 in0.0 mm
08:00 AM 43.8°F6.6°C 43.0°F6.1°C 97% 2.7 mph N4.3 kmh N 3.8 mph6.1 kmh 30.14 in1020.7 mb 0.00 in0.0 mm 0.00 in/hr0.0 mm/hr 0.00 in0.0 mm
08:15 AM 43.8°F6.6°C 43.0°F6.1°C 97% 2.6 mph N4.2 kmh N 4.5 mph7.2 kmh 30.15 in1021.0 mb 0.00 in0.0 mm 0.00 in/hr0.0 mm/hr 0.00 in0.0 mm
08:30 AM 43.8°F6.6°C 43.0°F6.1°C 97% 2.9 mph N4.7 kmh N 5.4 mph8.7 kmh 30.15 in1021.0 mb 0.00 in0.0 mm 0.00 in/hr0.0 mm/hr 0.00 in0.0 mm
08:45 AM 43.8°F6.6°C 43.0°F6.1°C 97% 2.9 mph N4.7 kmh N 5.4 mph8.7 kmh 30.15 in1021.0 mb 0.00 in0.0 mm 0.00 in/hr0.0 mm/hr 0.00 in0.0 mm
09:00 AM 44.0°F6.7°C 43.2°F6.2°C 97% 3.4 mph N5.5 kmh N 5.4 mph8.7 kmh 30.16 in1021.3 mb 0.00 in0.0 mm 0.00 in/hr0.0 mm/hr 0.00 in0.0 mm
09:15 AM 44.1°F6.7°C 43.3°F6.3°C 97% 3.6 mph NNE5.8 kmh NNE 5.4 mph8.7 kmh 30.16 in1021.3 mb 0.00 in0.0 mm 0.00 in/hr0.0 mm/hr 0.00 in0.0 mm
09:30 AM 44.5°F6.9°C 43.7°F6.5°C 97% 3.5 mph N5.6 kmh N 4.5 mph7.2 kmh 30.16 in1021.3 mb 0.00 in0.0 mm 0.00 in/hr0.0 mm/hr 0.00 in0.0 mm
09:45 AM 44.9°F7.2°C 44.1°F6.7°C 97% 3.5 mph N5.6 kmh N 4.5 mph7.2 kmh 30.17 in1021.7 mb 0.00 in0.0 mm 0.00 in/hr0.0 mm/hr 0.00 in0.0 mm
10:00 AM 45.0°F7.2°C 44.2°F6.8°C 97% 3.4 mph NNE5.5 kmh NNE 6.9 mph11.1 kmh 30.16 in1021.3 mb 0.00 in0.0 mm 0.00 in/hr0.0 mm/hr 0.00 in0.0 mm
10:15 AM 45.0°F7.2°C 44.2°F6.8°C 97% 4.0 mph NNE6.4 kmh NNE 5.4 mph8.7 kmh 30.17 in1021.7 mb 0.00 in0.0 mm 0.00 in/hr0.0 mm/hr 0.00 in0.0 mm
10:30 AM 45.4°F7.4°C 45.1°F7.3°C 99% 3.4 mph N5.5 kmh N 6.0 mph9.7 kmh 30.17 in1021.7 mb 0.00 in0.0 mm 0.00 in/hr0.0 mm/hr 0.00 in0.0 mm
10:45 AM 45.8°F7.7°C 45.5°F7.5°C 99% 4.4 mph NNW7.1 kmh NNW 6.0 mph9.7 kmh 30.16 in1021.3 mb 0.00 in0.0 mm 0.00 in/hr0.0 mm/hr 0.00 in0.0 mm
11:00 AM 46.1°F7.8°C 46.1°F7.8°C 100% 4.3 mph N6.9 kmh N 5.4 mph8.7 kmh 30.16 in1021.3 mb 0.00 in0.0 mm 0.00 in/hr0.0 mm/hr 0.00 in0.0 mm
11:15 AM 46.8°F8.2°C 45.8°F7.7°C 96% 4.6 mph N7.4 kmh N 7.6 mph12.2 kmh 30.16 in1021.3 mb 0.00 in0.0 mm 0.00 in/hr0.0 mm/hr 0.00 in0.0 mm
11:30 AM 47.4°F8.6°C 45.7°F7.6°C 94% 3.2 mph NNW5.1 kmh NNW 4.5 mph7.2 kmh 30.16 in1021.3 mb 0.00 in0.0 mm 0.00 in/hr0.0 mm/hr 0.00 in0.0 mm
11:45 AM 48.1°F8.9°C 45.9°F7.7°C 92% 5.4 mph N8.7 kmh N 6.9 mph11.1 kmh 30.16 in1021.3 mb 0.00 in0.0 mm 0.00 in/hr0.0 mm/hr 0.00 in0.0 mm
12:00 PM 48.8°F9.3°C 46.3°F7.9°C 91% 3.8 mph N6.1 kmh N 5.4 mph8.7 kmh 30.16 in1021.3 mb 0.00 in0.0 mm 0.00 in/hr0.0 mm/hr 0.00 in0.0 mm
12:15 PM 49.0°F9.4°C 45.3°F7.4°C 87% 5.1 mph NNE8.2 kmh NNE 6.0 mph9.7 kmh 30.16 in1021.3 mb 0.00 in0.0 mm 0.00 in/hr0.0 mm/hr 0.00 in0.0 mm
12:30 PM 49.4°F9.7°C 45.4°F7.4°C 86% 5.1 mph NE8.2 kmh NE 8.3 mph13.4 kmh 30.16 in1021.3 mb 0.00 in0.0 mm 0.00 in/hr0.0 mm/hr 0.00 in0.0 mm
12:45 PM 49.4°F9.7°C 44.7°F7.1°C 84% 5.7 mph N9.2 kmh N 8.3 mph13.4 kmh 30.16 in1021.3 mb 0.00 in0.0 mm 0.00 in/hr0.0 mm/hr 0.00 in0.0 mm
01:00 PM 49.5°F9.7°C 44.9°F7.2°C 84% 4.2 mph NNW6.8 kmh NNW 5.4 mph8.7 kmh 30.15 in1021.0 mb 0.00 in0.0 mm 0.00 in/hr0.0 mm/hr 0.00 in0.0 mm
01:15 PM 49.7°F9.8°C 44.8°F7.1°C 83% 5.1 mph N8.2 kmh N 6.0 mph9.7 kmh 30.15 in1021.0 mb 0.00 in0.0 mm 0.00 in/hr0.0 mm/hr 0.00 in0.0 mm
01:30 PM 49.9°F9.9°C 44.9°F7.2°C 83% 5.3 mph NNW8.5 kmh NNW 9.8 mph15.8 kmh 30.14 in1020.7 mb 0.00 in0.0 mm 0.00 in/hr0.0 mm/hr 0.00 in0.0 mm
01:45 PM 50.3°F10.2°C 45.3°F7.4°C 83% 4.0 mph NNW6.4 kmh NNW 7.6 mph12.2 kmh 30.14 in1020.7 mb 0.00 in0.0 mm 0.00 in/hr0.0 mm/hr 0.00 in0.0 mm
02:00 PM 50.4°F10.2°C 45.2°F7.3°C 82% 4.8 mph W7.7 kmh W 6.9 mph11.1 kmh 30.14 in1020.7 mb 0.00 in0.0 mm 0.00 in/hr0.0 mm/hr 0.00 in0.0 mm
02:15 PM 51.3°F10.7°C 45.7°F7.6°C 81% 5.3 mph NE8.5 kmh NE 7.6 mph12.2 kmh 30.13 in1020.3 mb 0.00 in0.0 mm 0.00 in/hr0.0 mm/hr 0.00 in0.0 mm
02:30 PM 51.9°F11.1°C 45.6°F7.6°C 79% 5.6 mph NNW9.0 kmh NNW 9.2 mph14.8 kmh 30.13 in1020.3 mb 0.00 in0.0 mm 0.00 in/hr0.0 mm/hr 0.00 in0.0 mm
02:45 PM 51.3°F10.7°C 44.4°F6.9°C 77% 7.3 mph NNE11.7 kmh NNE 7.6 mph12.2 kmh 30.13 in1020.3 mb 0.00 in0.0 mm 0.00 in/hr0.0 mm/hr 0.00 in0.0 mm
03:00 PM 51.0°F10.6°C 44.0°F6.7°C 77% 5.8 mph NNE9.3 kmh NNE 7.6 mph12.2 kmh 30.13 in1020.3 mb 0.00 in0.0 mm 0.00 in/hr0.0 mm/hr 0.00 in0.0 mm
03:15 PM 51.2°F10.7°C 44.5°F6.9°C 78% 5.5 mph NNE8.9 kmh NNE 6.9 mph11.1 kmh 30.12 in1020.0 mb 0.00 in0.0 mm 0.00 in/hr0.0 mm/hr 0.00 in0.0 mm
03:30 PM 51.5°F10.8°C 44.6°F7.0°C 77% 5.9 mph NNE9.5 kmh NNE 9.2 mph14.8 kmh 30.12 in1020.0 mb 0.00 in0.0 mm 0.00 in/hr0.0 mm/hr 0.00 in0.0 mm
03:45 PM 51.9°F11.1°C 44.6°F7.0°C 76% 6.5 mph NW10.5 kmh NW 10.7 mph17.2 kmh 30.13 in1020.3 mb 0.00 in0.0 mm 0.00 in/hr0.0 mm/hr 0.00 in0.0 mm
04:00 PM 51.7°F10.9°C 44.4°F6.9°C 76% 6.4 mph NNE10.3 kmh NNE 11.4 mph18.3 kmh 30.13 in1020.3 mb 0.00 in0.0 mm 0.00 in/hr0.0 mm/hr 0.00 in0.0 mm
04:15 PM 51.5°F10.8°C 43.9°F6.6°C 75% 8.0 mph N12.9 kmh N 12.1 mph19.5 kmh 30.13 in1020.3 mb 0.00 in0.0 mm 0.00 in/hr0.0 mm/hr 0.00 in0.0 mm
04:30 PM 51.5°F10.8°C 44.2°F6.8°C 76% 6.1 mph N9.8 kmh N 8.3 mph13.4 kmh 30.12 in1020.0 mb 0.00 in0.0 mm 0.00 in/hr0.0 mm/hr 0.00 in0.0 mm
04:45 PM 51.3°F10.7°C 43.7°F6.5°C 75% 6.2 mph NNW10.0 kmh NNW 7.6 mph12.2 kmh 30.11 in1019.6 mb 0.00 in0.0 mm 0.00 in/hr0.0 mm/hr 0.00 in0.0 mm
05:00 PM 51.0°F10.6°C 43.3°F6.3°C 75% 7.3 mph N11.7 kmh N 10.7 mph17.2 kmh 30.12 in1020.0 mb 0.00 in0.0 mm 0.00 in/hr0.0 mm/hr 0.00 in0.0 mm
05:15 PM 50.3°F10.2°C 43.0°F6.1°C 76% 7.5 mph N12.1 kmh N 13.0 mph20.9 kmh 30.12 in1020.0 mb 0.00 in0.0 mm 0.00 in/hr0.0 mm/hr 0.00 in0.0 mm
05:30 PM 49.9°F9.9°C 42.6°F5.9°C 76% 7.8 mph N12.6 kmh N 10.7 mph17.2 kmh 30.13 in1020.3 mb 0.00 in0.0 mm 0.00 in/hr0.0 mm/hr 0.00 in0.0 mm
05:45 PM 49.5°F9.7°C 42.6°F5.9°C 77% 5.4 mph NNE8.7 kmh NNE 8.3 mph13.4 kmh 30.13 in1020.3 mb 0.00 in0.0 mm 0.00 in/hr0.0 mm/hr 0.00 in0.0 mm
06:00 PM 49.4°F9.7°C 42.1°F5.6°C 76% 8.0 mph N12.9 kmh N 9.8 mph15.8 kmh 30.14 in1020.7 mb 0.00 in0.0 mm 0.00 in/hr0.0 mm/hr 0.00 in0.0 mm
06:15 PM 48.8°F9.3°C 42.3°F5.7°C 78% 6.9 mph N11.1 kmh N 9.2 mph14.8 kmh 30.13 in1020.3 mb 0.00 in0.0 mm 0.00 in/hr0.0 mm/hr 0.00 in0.0 mm
06:30 PM 48.1°F8.9°C 41.9°F5.5°C 79% 8.8 mph N14.2 kmh N 10.7 mph17.2 kmh 30.13 in1020.3 mb 0.00 in0.0 mm 0.00 in/hr0.0 mm/hr 0.00 in0.0 mm
06:45 PM 47.4°F8.6°C 41.5°F5.3°C 80% 6.0 mph N9.7 kmh N 8.3 mph13.4 kmh 30.14 in1020.7 mb 0.00 in0.0 mm 0.00 in/hr0.0 mm/hr 0.00 in0.0 mm
07:00 PM 47.0°F8.3°C 41.8°F5.4°C 82% 4.8 mph NNW7.7 kmh NNW 6.0 mph9.7 kmh 30.14 in1020.7 mb 0.00 in0.0 mm 0.00 in/hr0.0 mm/hr 0.00 in0.0 mm
07:15 PM 46.8°F8.2°C 41.6°F5.3°C 82% 7.3 mph NNE11.7 kmh NNE 9.2 mph14.8 kmh 30.14 in1020.7 mb 0.00 in0.0 mm 0.00 in/hr0.0 mm/hr 0.00 in0.0 mm
07:30 PM 46.7°F8.2°C 41.5°F5.3°C 82% 5.8 mph NNE9.3 kmh NNE 8.3 mph13.4 kmh 30.14 in1020.7 mb 0.00 in0.0 mm 0.00 in/hr0.0 mm/hr 0.00 in0.0 mm
07:45 PM 46.7°F8.2°C 41.5°F5.3°C 82% 5.4 mph NNW8.7 kmh NNW 9.2 mph14.8 kmh 30.14 in1020.7 mb 0.00 in0.0 mm 0.00 in/hr0.0 mm/hr 0.00 in0.0 mm
08:00 PM 46.5°F8.1°C 41.3°F5.2°C 82% 6.9 mph N11.1 kmh N 9.8 mph15.8 kmh 30.14 in1020.7 mb 0.00 in0.0 mm 0.00 in/hr0.0 mm/hr 0.00 in0.0 mm
08:15 PM 46.3°F7.9°C 41.4°F5.2°C 83% 7.8 mph N12.6 kmh N 9.8 mph15.8 kmh 30.14 in1020.7 mb 0.00 in0.0 mm 0.00 in/hr0.0 mm/hr 0.00 in0.0 mm
08:30 PM 45.8°F7.7°C 40.9°F4.9°C 83% 7.8 mph N12.6 kmh N 9.2 mph14.8 kmh 30.14 in1020.7 mb 0.00 in0.0 mm 0.00 in/hr0.0 mm/hr 0.00 in0.0 mm
08:45 PM 45.4°F7.4°C 41.2°F5.1°C 85% 4.4 mph N7.1 kmh N 6.0 mph9.7 kmh 30.14 in1020.7 mb 0.01 in0.3 mm 0.04 in/hr1.0 mm/hr 0.01 in0.3 mm
09:00 PM 45.0°F7.2°C 41.1°F5.1°C 86% 3.8 mph NNE6.1 kmh NNE 8.3 mph13.4 kmh 30.14 in1020.7 mb 0.01 in0.3 mm 0.00 in/hr0.0 mm/hr 0.01 in0.3 mm
09:15 PM 44.9°F7.2°C 41.2°F5.1°C 87% 3.5 mph N5.6 kmh N 4.5 mph7.2 kmh 30.14 in1020.7 mb 0.01 in0.3 mm 0.00 in/hr0.0 mm/hr 0.01 in0.3 mm
09:30 PM 44.7°F7.1°C 41.3°F5.2°C 88% 4.1 mph NNE6.6 kmh NNE 10.7 mph17.2 kmh 30.14 in1020.7 mb 0.01 in0.3 mm 0.00 in/hr0.0 mm/hr 0.01 in0.3 mm
09:45 PM 44.3°F6.8°C 41.3°F5.2°C 89% 3.6 mph N5.8 kmh N 6.0 mph9.7 kmh 30.13 in1020.3 mb 0.01 in0.3 mm 0.00 in/hr0.0 mm/hr 0.02 in0.5 mm
10:00 PM 44.3°F6.8°C 41.6°F5.3°C 90% 4.1 mph NW6.6 kmh NW 4.5 mph7.2 kmh 30.13 in1020.3 mb 0.01 in0.3 mm 0.00 in/hr0.0 mm/hr 0.02 in0.5 mm
10:15 PM 44.3°F6.8°C 41.6°F5.3°C 90% 3.2 mph NNW5.1 kmh NNW 5.4 mph8.7 kmh 30.12 in1020.0 mb 0.01 in0.3 mm 0.00 in/hr0.0 mm/hr 0.02 in0.5 mm
10:30 PM 44.3°F6.8°C 41.9°F5.5°C 91% 3.3 mph NW5.3 kmh NW 5.4 mph8.7 kmh 30.11 in1019.6 mb 0.01 in0.3 mm 0.00 in/hr0.0 mm/hr 0.02 in0.5 mm
10:45 PM 44.3°F6.8°C 41.9°F5.5°C 91% 2.7 mph N4.3 kmh N 4.5 mph7.2 kmh 30.11 in1019.6 mb 0.00 in0.0 mm 0.00 in/hr0.0 mm/hr 0.02 in0.5 mm
11:00 PM 44.3°F6.8°C 41.9°F5.5°C 91% 3.2 mph NNW5.1 kmh NNW 5.4 mph8.7 kmh 30.10 in1019.3 mb 0.00 in0.0 mm 0.00 in/hr0.0 mm/hr 0.02 in0.5 mm
11:15 PM 44.3°F6.8°C 41.9°F5.5°C 91% 2.6 mph NNW4.2 kmh NNW 3.1 mph5.0 kmh 30.09 in1019.0 mb 0.00 in0.0 mm 0.00 in/hr0.0 mm/hr 0.02 in0.5 mm
11:30 PM 44.3°F6.8°C 41.6°F5.3°C 90% 3.0 mph NW4.8 kmh NW 3.8 mph6.1 kmh 30.09 in1019.0 mb 0.00 in0.0 mm 0.00 in/hr0.0 mm/hr 0.02 in0.5 mm
11:45 PM 44.5°F6.9°C 41.8°F5.4°C 90% 2.9 mph NW4.7 kmh NW 3.8 mph6.1 kmh 30.08 in1018.6 mb 0.00 in0.0 mm 0.00 in/hr0.0 mm/hr 0.02 in0.5 mm